createdAt,value
2023-02-06T00:01:55.705Z,30.70
2023-02-06T00:04:22.128Z,30.88
2023-02-06T00:06:49.003Z,31.58
2023-02-06T00:09:15.533Z,27.45
2023-02-06T00:11:42.060Z,25.90
2023-02-06T00:14:08.674Z,28.75
2023-02-06T00:16:35.493Z,28.98
2023-02-06T00:19:03.130Z,24.55
2023-02-06T00:21:30.250Z,26.92
2023-02-06T00:23:59.108Z,26.85
2023-02-06T00:26:26.114Z,28.90
2023-02-06T00:28:52.644Z,26.40
2023-02-06T00:31:19.272Z,22.58
2023-02-06T00:33:45.796Z,25.02
2023-02-06T00:36:12.582Z,24.50
2023-02-06T00:38:39.087Z,21.60
2023-02-06T00:41:05.828Z,26.02
2023-02-06T00:43:32.467Z,24.92
2023-02-06T00:45:58.878Z,25.23
2023-02-06T00:48:25.721Z,20.27
2023-02-06T00:50:53.680Z,22.55
2023-02-06T00:53:20.643Z,21.25
2023-02-06T00:55:47.540Z,26.80
2023-02-06T00:58:13.990Z,21.58
2023-02-06T01:00:40.419Z,21.33
2023-02-06T01:03:07.209Z,21.58
2023-02-06T01:05:33.773Z,19.58
2023-02-06T01:08:00.950Z,21.85
2023-02-06T01:10:29.068Z,20.10
2023-02-06T01:12:55.487Z,22.10
2023-02-06T01:15:22.028Z,19.77
2023-02-06T01:17:48.897Z,21.05
2023-02-06T01:20:15.432Z,20.45
2023-02-06T01:22:42.007Z,21.77
2023-02-06T01:25:08.805Z,20.40
2023-02-06T01:27:37.271Z,18.75
2023-02-06T01:30:05.795Z,19.85
2023-02-06T01:32:32.261Z,18.83
2023-02-06T01:34:58.675Z,21.02
2023-02-06T01:37:25.310Z,22.80
2023-02-06T01:39:51.869Z,24.38
2023-02-06T01:42:18.571Z,24.55
2023-02-06T01:44:45.005Z,20.48
2023-02-06T01:47:11.455Z,23.35
2023-02-06T01:49:50.892Z,23.13
2023-02-06T01:52:24.336Z,24.73
2023-02-06T01:54:58.148Z,25.92
2023-02-06T01:57:26.655Z,24.10
2023-02-06T01:59:59.111Z,25.10
2023-02-06T02:02:28.169Z,26.67
2023-02-06T02:04:56.815Z,23.05
2023-02-06T02:07:27.226Z,25.15
2023-02-06T02:09:53.706Z,28.83
2023-02-06T02:12:21.542Z,19.85
2023-02-06T02:14:50.362Z,22.40
2023-02-06T02:17:32.904Z,23.92
2023-02-06T02:20:27.194Z,17.35
2023-02-06T02:23:18.700Z,23.20
2023-02-06T02:25:54.257Z,18.08
2023-02-06T02:28:55.933Z,19.35
2023-02-06T02:31:45.479Z,25.85
2023-02-06T02:34:44.998Z,21.80
2023-02-06T02:37:20.208Z,21.02
2023-02-06T02:40:08.227Z,24.63
2023-02-06T02:42:48.711Z,21.20
2023-02-06T02:45:28.634Z,26.98
2023-02-06T02:48:15.114Z,23.95
2023-02-06T02:50:42.858Z,26.05
2023-02-06T02:53:09.674Z,34.47
2023-02-06T02:55:36.350Z,30.55
2023-02-06T02:58:08.432Z,27.77
2023-02-06T03:00:40.019Z,27.30
2023-02-06T03:03:08.923Z,32.10
2023-02-06T03:05:42.495Z,21.88
2023-02-06T03:11:02.665Z,22.38
2023-02-06T03:13:38.145Z,28.42
2023-02-06T03:16:43.012Z,27.75
2023-02-06T03:19:22.925Z,24.98
2023-02-06T03:21:49.957Z,28.73
2023-02-06T03:24:33.255Z,26.67
2023-02-06T03:27:03.567Z,27.80
2023-02-06T03:29:34.060Z,26.55
2023-02-06T03:32:04.393Z,29.42
2023-02-06T03:34:44.581Z,27.33
2023-02-06T03:37:11.780Z,25.42
2023-02-06T03:39:39.468Z,31.08
2023-02-06T03:42:06.969Z,27.23
2023-02-06T03:44:39.381Z,26.27
2023-02-06T03:47:08.123Z,26.00
2023-02-06T03:49:37.925Z,29.80
2023-02-06T03:52:15.855Z,25.83
2023-02-06T03:54:49.045Z,23.00
2023-02-06T03:57:19.368Z,31.35
2023-02-06T03:59:47.079Z,29.63
2023-02-06T04:02:15.159Z,25.08
2023-02-06T04:04:44.466Z,28.50
2023-02-06T04:07:19.829Z,26.25
2023-02-06T04:09:46.288Z,27.23
2023-02-06T04:12:12.749Z,22.45
2023-02-06T04:14:39.956Z,22.90
2023-02-06T04:17:07.125Z,22.95
2023-02-06T04:19:34.010Z,31.55
2023-02-06T04:22:00.981Z,23.73
2023-02-06T04:24:29.272Z,25.98
2023-02-06T04:26:57.168Z,23.42
2023-02-06T04:29:23.653Z,23.10
2023-02-06T04:31:50.100Z,24.08
2023-02-06T04:34:16.931Z,24.65
2023-02-06T04:36:44.165Z,26.55
2023-02-06T04:39:10.985Z,28.48
2023-02-06T04:41:37.458Z,24.65
2023-02-06T04:44:04.248Z,24.40
2023-02-06T04:46:30.726Z,21.90
2023-02-06T04:48:57.147Z,18.63
2023-02-06T04:51:23.591Z,24.42
2023-02-06T04:53:49.997Z,21.77
2023-02-06T04:56:16.476Z,22.27
2023-02-06T04:58:43.173Z,22.52
2023-02-06T05:01:09.883Z,19.17
2023-02-06T05:03:36.554Z,23.02
2023-02-06T05:06:04.398Z,25.45
2023-02-06T05:08:31.401Z,24.08
2023-02-06T05:10:57.827Z,19.77
2023-02-06T05:13:24.293Z,20.15
2023-02-06T05:15:52.099Z,20.58
2023-02-06T05:18:18.682Z,21.38
2023-02-06T05:20:45.536Z,17.15
2023-02-06T05:23:12.064Z,20.77
2023-02-06T05:25:39.193Z,17.20
2023-02-06T05:28:07.414Z,17.65
2023-02-06T05:30:35.071Z,17.17
2023-02-06T05:33:01.950Z,14.10
2023-02-06T05:35:29.445Z,15.90
2023-02-06T05:37:56.982Z,17.98
2023-02-06T05:40:23.514Z,18.25
2023-02-06T05:42:50.208Z,16.77
2023-02-06T05:45:16.956Z,16.48
2023-02-06T05:47:43.392Z,15.75
2023-02-06T05:50:09.912Z,11.98
2023-02-06T05:52:36.575Z,12.40
2023-02-06T05:55:03.149Z,16.30
2023-02-06T05:57:29.637Z,13.73
2023-02-06T05:59:56.068Z,17.40
2023-02-06T06:02:22.514Z,13.93
2023-02-06T06:04:48.948Z,18.88
2023-02-06T06:07:16.322Z,15.80
2023-02-06T06:09:43.132Z,14.82
2023-02-06T06:12:09.596Z,16.73
2023-02-06T06:14:36.013Z,15.55
2023-02-06T06:17:02.671Z,13.40
2023-02-06T06:19:29.178Z,13.48
2023-02-06T06:21:57.892Z,14.18
2023-02-06T06:24:26.422Z,15.35
2023-02-06T06:26:53.005Z,21.90
2023-02-06T06:29:19.574Z,16.90
2023-02-06T06:31:46.153Z,17.70
2023-02-06T06:34:12.819Z,14.98
2023-02-06T06:36:39.276Z,13.70
2023-02-06T06:39:05.686Z,11.50
2023-02-06T06:41:32.149Z,11.48
2023-02-06T06:43:58.905Z,12.88
2023-02-06T06:46:25.598Z,12.43
2023-02-06T06:48:52.223Z,13.57
2023-02-06T06:51:18.639Z,11.77
2023-02-06T06:53:45.096Z,12.13
2023-02-06T06:56:14.457Z,10.30
2023-02-06T06:58:41.819Z,12.63
2023-02-06T07:01:09.451Z,12.05
2023-02-06T07:03:36.694Z,13.68
2023-02-06T07:06:03.333Z,13.75
2023-02-06T07:08:30.109Z,12.32
2023-02-06T07:10:58.012Z,12.52
2023-02-06T07:13:24.446Z,13.95
2023-02-06T07:15:50.826Z,13.10
2023-02-06T07:18:17.312Z,13.32
2023-02-06T07:20:43.757Z,11.30
2023-02-06T07:23:10.192Z,14.40
2023-02-06T07:25:36.848Z,11.50
2023-02-06T07:28:03.604Z,11.57
2023-02-06T07:30:30.129Z,15.32
2023-02-06T07:32:56.651Z,14.82
2023-02-06T07:35:23.073Z,13.68
2023-02-06T07:37:49.654Z,12.18
2023-02-06T07:40:16.811Z,10.90
2023-02-06T07:42:43.254Z,11.30
2023-02-06T07:45:10.143Z,12.20
2023-02-06T07:47:36.642Z,10.95
2023-02-06T07:50:04.360Z,19.05
2023-02-06T07:52:31.277Z,13.32
2023-02-06T07:54:57.668Z,14.73
2023-02-06T07:57:24.141Z,17.23
2023-02-06T07:59:50.744Z,12.02
2023-02-06T08:02:17.188Z,17.13
2023-02-06T08:04:44.643Z,13.65
2023-02-06T08:07:14.961Z,13.98
2023-02-06T08:09:41.984Z,12.88
2023-02-06T08:12:10.950Z,13.00
2023-02-06T08:14:43.105Z,13.07
2023-02-06T08:17:09.736Z,10.65
2023-02-06T08:19:36.200Z,15.57
2023-02-06T08:22:02.650Z,13.50
2023-02-06T08:24:29.098Z,12.10
2023-02-06T08:26:56.287Z,13.48
2023-02-06T08:29:22.885Z,10.88
2023-02-06T08:31:49.824Z,13.52
2023-02-06T08:34:16.359Z,12.32
2023-02-06T08:36:43.688Z,13.82
2023-02-06T08:39:13.368Z,11.27
2023-02-06T08:41:41.423Z,11.98
2023-02-06T08:44:14.480Z,11.73
2023-02-06T08:46:41.022Z,12.50
2023-02-06T08:49:11.943Z,10.70
2023-02-06T08:51:38.381Z,11.20
2023-02-06T08:54:07.112Z,11.38
2023-02-06T08:56:35.309Z,11.07
2023-02-06T08:59:02.269Z,14.07
2023-02-06T09:01:31.103Z,11.10
2023-02-06T09:04:00.446Z,9.68
2023-02-06T09:06:27.520Z,10.27
2023-02-06T09:08:54.391Z,9.32
2023-02-06T09:11:22.794Z,8.20
2023-02-06T09:13:50.368Z,12.07
2023-02-06T09:16:19.829Z,8.30
2023-02-06T09:18:46.877Z,7.75
2023-02-06T09:21:16.121Z,9.40
2023-02-06T09:23:45.552Z,8.10
2023-02-06T09:26:17.502Z,8.73
2023-02-06T09:28:43.932Z,9.82
2023-02-06T09:31:11.684Z,10.88
2023-02-06T09:33:39.533Z,7.82
2023-02-06T09:36:12.266Z,9.20
2023-02-06T09:38:41.013Z,9.43
2023-02-06T09:41:18.997Z,12.88
2023-02-06T09:43:51.679Z,8.20
2023-02-06T09:46:23.323Z,10.45
2023-02-06T09:48:50.903Z,14.85
2023-02-06T09:51:56.542Z,8.35
2023-02-06T09:54:29.365Z,10.45
2023-02-06T09:57:13.034Z,8.43
2023-02-06T09:59:45.052Z,7.10
2023-02-06T10:02:41.015Z,9.50
2023-02-06T10:05:26.992Z,9.02
2023-02-06T10:08:12.952Z,12.18
2023-02-06T10:10:46.296Z,9.65
2023-02-06T10:13:31.018Z,15.25
2023-02-06T10:16:34.102Z,7.43
2023-02-06T10:19:22.775Z,13.05
2023-02-06T10:21:55.454Z,12.98
2023-02-06T10:25:02.704Z,8.68
2023-02-06T10:27:33.693Z,9.38
2023-02-06T10:30:01.747Z,11.30
2023-02-06T10:33:11.797Z,10.65
2023-02-06T10:35:46.233Z,13.45
2023-02-06T10:39:00.782Z,10.52
2023-02-06T10:41:40.588Z,8.32
2023-02-06T10:44:26.655Z,7.05
2023-02-06T10:46:55.676Z,6.97
2023-02-06T10:49:36.093Z,6.75
2023-02-06T10:52:14.584Z,11.35
2023-02-06T10:54:50.979Z,8.95
2023-02-06T10:57:21.716Z,8.80
2023-02-06T10:59:53.757Z,5.22
2023-02-06T11:02:20.398Z,11.60
2023-02-06T11:04:56.804Z,11.00
2023-02-06T11:07:28.669Z,8.38
2023-02-06T11:09:55.374Z,6.35
2023-02-06T11:12:32.429Z,9.65
2023-02-06T11:15:05.052Z,9.57
2023-02-06T11:17:33.191Z,8.65
2023-02-06T11:20:15.206Z,7.30
2023-02-06T11:22:52.430Z,10.63
2023-02-06T11:25:21.514Z,9.77
2023-02-06T11:27:48.856Z,7.70
2023-02-06T11:30:43.035Z,11.05
2023-02-06T11:33:22.888Z,7.38
2023-02-06T11:35:59.091Z,9.05
2023-02-06T11:38:29.514Z,11.02
2023-02-06T11:41:16.984Z,7.03
2023-02-06T11:43:43.338Z,8.02
2023-02-06T11:46:15.113Z,7.05
2023-02-06T11:48:55.668Z,9.07
2023-02-06T11:51:24.444Z,8.90
2023-02-06T11:54:01.232Z,8.18
2023-02-06T11:56:28.973Z,13.15
2023-02-06T11:59:23.057Z,8.55
2023-02-06T12:01:50.097Z,6.65
2023-02-06T12:04:24.637Z,16.70
2023-02-06T12:09:19.276Z,14.80
2023-02-06T12:14:19.354Z,8.37
2023-02-06T12:16:46.874Z,8.98
2023-02-06T12:19:31.747Z,10.57
2023-02-06T12:22:02.733Z,8.65
2023-02-06T12:24:29.186Z,12.15
2023-02-06T12:26:59.735Z,12.32
2023-02-06T12:29:40.555Z,16.13
2023-02-06T12:32:19.345Z,14.38
2023-02-06T12:34:54.185Z,13.52
2023-02-06T12:37:42.126Z,14.98
2023-02-06T12:40:32.777Z,12.52
2023-02-06T12:43:09.497Z,14.20
2023-02-06T12:49:18.873Z,12.27
2023-02-06T12:52:04.846Z,11.05
2023-02-06T12:54:44.811Z,19.92
2023-02-06T12:57:20.219Z,12.55
2023-02-06T12:59:58.452Z,15.25
2023-02-06T13:02:53.682Z,23.50
2023-02-06T13:05:23.138Z,11.35
2023-02-06T13:07:50.990Z,13.50
2023-02-06T13:10:25.502Z,13.32
2023-02-06T13:12:58.537Z,14.43
2023-02-06T13:15:35.174Z,10.15
2023-02-06T13:18:01.814Z,11.02
2023-02-06T13:20:30.856Z,13.80
2023-02-06T13:23:23.499Z,16.85
2023-02-06T13:25:50.356Z,12.50
2023-02-06T13:28:22.888Z,10.55
2023-02-06T13:30:59.867Z,10.18
2023-02-06T13:33:37.992Z,10.85
2023-02-06T13:36:16.595Z,14.55
2023-02-06T13:38:43.665Z,13.20
2023-02-06T13:41:15.877Z,14.52
2023-02-06T13:43:59.421Z,14.48
2023-02-06T13:46:44.644Z,12.77
2023-02-06T13:49:38.675Z,10.48
2023-02-06T13:52:24.750Z,11.45
2023-02-06T13:55:20.880Z,10.55
2023-02-06T13:58:15.415Z,12.82
2023-02-06T14:00:45.909Z,10.73
2023-02-06T14:03:18.390Z,10.13
2023-02-06T14:05:47.831Z,8.20
2023-02-06T14:08:32.537Z,16.15
2023-02-06T14:11:32.750Z,8.82
2023-02-06T14:14:18.061Z,13.07
2023-02-06T14:17:06.786Z,9.57
2023-02-06T14:19:54.170Z,9.63
2023-02-06T14:22:45.866Z,7.63
2023-02-06T14:25:22.778Z,8.93
2023-02-06T14:28:12.856Z,7.40
2023-02-06T14:31:02.187Z,12.07
2023-02-06T14:34:07.069Z,7.13
2023-02-06T14:36:43.388Z,7.72
2023-02-06T14:39:54.720Z,7.85
2023-02-06T14:42:33.305Z,10.98
2023-02-06T14:45:23.937Z,8.38
2023-02-06T14:47:52.394Z,12.20
2023-02-06T14:50:25.365Z,9.40
2023-02-06T14:52:56.385Z,9.82
2023-02-06T14:55:39.672Z,12.80
2023-02-06T14:58:18.533Z,10.18
2023-02-06T15:00:45.480Z,7.82
2023-02-06T15:03:19.072Z,6.03
2023-02-06T15:05:46.235Z,7.93
2023-02-06T15:08:19.321Z,6.28
2023-02-06T15:10:46.836Z,7.40
2023-02-06T15:13:24.499Z,12.93
2023-02-06T15:15:55.821Z,6.22
2023-02-06T15:18:22.753Z,9.05
2023-02-06T15:21:04.432Z,8.30
2023-02-06T15:23:55.351Z,10.23
2023-02-06T15:26:25.439Z,7.35
2023-02-06T15:29:04.183Z,13.93
2023-02-06T15:31:31.448Z,9.82
2023-02-06T15:34:00.182Z,7.85
2023-02-06T15:36:32.529Z,7.63
2023-02-06T15:39:00.795Z,8.15
2023-02-06T15:41:30.956Z,6.85
2023-02-06T15:44:02.967Z,7.15
2023-02-06T15:46:31.093Z,5.97
2023-02-06T15:48:58.341Z,10.15
2023-02-06T15:51:39.703Z,6.30
2023-02-06T15:54:27.522Z,11.63
2023-02-06T15:56:58.812Z,6.05
2023-02-06T15:59:26.815Z,8.05
2023-02-06T16:01:56.782Z,13.82
2023-02-06T16:04:33.152Z,8.68
2023-02-06T16:07:11.566Z,7.53
2023-02-06T16:09:51.942Z,9.40
2023-02-06T16:12:21.380Z,9.77
2023-02-06T16:15:02.520Z,7.18
2023-02-06T16:17:35.344Z,12.52
2023-02-06T16:20:23.970Z,9.77
2023-02-06T16:22:56.999Z,9.38
2023-02-06T16:25:28.882Z,10.20
2023-02-06T16:27:56.157Z,7.03
2023-02-06T16:30:33.144Z,7.03
2023-02-06T16:33:08.989Z,9.13
2023-02-06T16:35:35.401Z,6.20
2023-02-06T16:38:01.836Z,9.77
2023-02-06T16:40:28.318Z,5.10
2023-02-06T16:42:54.893Z,7.20
2023-02-06T16:45:26.299Z,6.68
2023-02-06T16:47:57.499Z,10.45
2023-02-06T16:50:25.253Z,9.45
2023-02-06T16:52:55.186Z,7.28
2023-02-06T16:55:24.175Z,11.38
2023-02-06T16:57:58.663Z,4.80
2023-02-06T17:00:30.994Z,5.75
2023-02-06T17:03:03.936Z,4.47
2023-02-06T17:05:31.494Z,3.97
2023-02-06T17:07:59.075Z,5.97
2023-02-06T17:10:26.420Z,8.00
2023-02-06T17:12:53.019Z,5.00
2023-02-06T17:15:19.720Z,4.90
2023-02-06T17:17:46.574Z,7.10
2023-02-06T17:20:38.129Z,5.55
2023-02-06T17:23:05.551Z,7.70
2023-02-06T17:25:32.298Z,6.95
2023-02-06T17:27:59.337Z,9.38
2023-02-06T17:30:26.577Z,6.82
2023-02-06T17:32:53.384Z,3.70
2023-02-06T17:35:19.910Z,4.97
2023-02-06T17:37:46.694Z,6.10
2023-02-06T17:40:20.835Z,4.85
2023-02-06T17:42:48.207Z,6.70
2023-02-06T17:45:15.990Z,3.97
2023-02-06T17:47:43.650Z,5.38
2023-02-06T17:50:14.284Z,5.03
2023-02-06T17:52:40.705Z,5.47
2023-02-06T17:55:07.922Z,4.95
2023-02-06T17:57:36.598Z,3.75
2023-02-06T18:00:12.366Z,4.82
2023-02-06T18:02:38.914Z,5.00
2023-02-06T18:05:06.414Z,5.07
2023-02-06T18:07:33.015Z,4.22
2023-02-06T18:09:59.490Z,4.55
2023-02-06T18:12:26.021Z,6.40
2023-02-06T18:14:52.614Z,5.18
2023-02-06T18:17:19.126Z,6.20
2023-02-06T18:19:46.612Z,3.95
2023-02-06T18:22:17.332Z,6.10
2023-02-06T18:24:44.616Z,4.45
2023-02-06T18:27:18.460Z,4.25
2023-02-06T18:29:50.018Z,4.82
2023-02-06T18:32:18.239Z,4.13
2023-02-06T18:34:44.760Z,4.43
2023-02-06T18:37:11.294Z,6.90
2023-02-06T18:39:37.863Z,4.80
2023-02-06T18:42:23.421Z,17.48
2023-02-06T18:44:50.094Z,5.53
2023-02-06T18:47:17.569Z,6.72
2023-02-06T18:49:44.041Z,4.70
2023-02-06T18:52:10.539Z,4.88
2023-02-06T18:54:38.996Z,5.38
2023-02-06T18:57:06.020Z,9.32
2023-02-06T18:59:32.586Z,7.57
2023-02-06T19:01:59.122Z,4.90
2023-02-06T19:04:25.790Z,6.70
2023-02-06T19:06:52.213Z,9.00
2023-02-06T19:09:28.456Z,5.00
2023-02-06T19:11:54.963Z,4.03
2023-02-06T19:14:25.266Z,4.35
2023-02-06T19:16:52.966Z,4.30
2023-02-06T19:19:19.476Z,4.95
2023-02-06T19:21:46.107Z,3.58
2023-02-06T19:24:15.079Z,2.85
2023-02-06T19:26:42.268Z,3.95
2023-02-06T19:29:09.447Z,4.85
2023-02-06T19:31:39.221Z,2.95
2023-02-06T19:34:06.570Z,5.10
2023-02-06T19:36:34.972Z,4.38
2023-02-06T19:39:04.971Z,3.92
2023-02-06T19:41:33.581Z,4.72
2023-02-06T19:44:09.743Z,5.28
2023-02-06T19:46:36.347Z,5.13
2023-02-06T19:49:05.631Z,3.92
2023-02-06T19:51:38.444Z,3.80
2023-02-06T19:54:05.963Z,6.25
2023-02-06T19:56:39.307Z,5.70
2023-02-06T19:59:09.944Z,4.97
2023-02-06T20:01:36.480Z,4.43
2023-02-06T20:04:03.614Z,4.55
2023-02-06T20:06:35.577Z,3.88
2023-02-06T20:09:05.055Z,5.03
2023-02-06T20:11:32.970Z,5.18
2023-02-06T20:13:59.628Z,3.92
2023-02-06T20:16:30.375Z,5.72
2023-02-06T20:18:58.521Z,6.82
2023-02-06T20:21:32.396Z,5.40
2023-02-06T20:24:02.977Z,6.20
2023-02-06T20:26:34.595Z,6.00
2023-02-06T20:29:03.070Z,6.55
2023-02-06T20:31:30.137Z,8.63
2023-02-06T20:33:56.744Z,6.20
2023-02-06T20:36:26.348Z,6.63
2023-02-06T20:38:57.964Z,6.57
2023-02-06T20:41:31.140Z,8.77
2023-02-06T20:44:00.109Z,8.05
2023-02-06T20:46:29.726Z,7.70
2023-02-06T20:48:58.435Z,7.28
2023-02-06T20:51:25.151Z,8.88
2023-02-06T20:53:51.925Z,9.18
2023-02-06T20:56:19.400Z,10.50
2023-02-06T20:58:47.295Z,10.18
2023-02-06T21:01:17.610Z,12.07
2023-02-06T21:03:46.150Z,12.35
2023-02-06T21:06:13.990Z,14.38
2023-02-06T21:08:41.425Z,15.07
2023-02-06T21:11:08.075Z,19.20
2023-02-06T21:13:35.058Z,20.42
2023-02-06T21:16:01.919Z,19.70
2023-02-06T21:18:31.335Z,18.00
2023-02-06T21:21:07.141Z,19.65
2023-02-06T21:23:33.866Z,19.20
2023-02-06T21:26:03.108Z,19.35
2023-02-06T21:28:29.528Z,20.83
2023-02-06T21:31:02.042Z,21.75
2023-02-06T21:33:28.717Z,19.63
2023-02-06T21:35:55.611Z,19.50
2023-02-06T21:38:22.241Z,20.13
2023-02-06T21:40:49.331Z,21.65
2023-02-06T21:43:16.088Z,18.35
2023-02-06T21:45:45.339Z,21.17
2023-02-06T21:48:11.883Z,19.02
2023-02-06T21:50:39.809Z,18.40
2023-02-06T21:53:08.031Z,19.98
2023-02-06T21:55:34.603Z,20.77
2023-02-06T21:58:01.379Z,20.98
2023-02-06T22:00:28.789Z,23.33
2023-02-06T22:02:55.313Z,21.20
2023-02-06T22:05:21.843Z,18.67
2023-02-06T22:07:48.287Z,20.23
2023-02-06T22:10:14.813Z,19.77
2023-02-06T22:12:41.257Z,20.48
2023-02-06T22:15:08.333Z,21.08
2023-02-06T22:17:35.490Z,22.83
2023-02-06T22:20:02.139Z,21.23
2023-02-06T22:22:28.812Z,22.73
2023-02-06T22:24:59.670Z,21.63
2023-02-06T22:27:26.088Z,25.75
2023-02-06T22:29:55.527Z,21.25
2023-02-06T22:32:21.990Z,20.65
2023-02-06T22:34:50.846Z,18.77
2023-02-06T22:37:17.756Z,20.63
2023-02-06T22:39:44.297Z,19.92
2023-02-06T22:42:10.733Z,19.17
2023-02-06T22:44:37.636Z,20.63
2023-02-06T22:47:04.177Z,23.35
2023-02-06T22:49:30.593Z,21.52
2023-02-06T22:52:01.215Z,19.80
2023-02-06T22:54:27.704Z,21.42
2023-02-06T22:56:54.733Z,20.85
2023-02-06T22:59:23.546Z,20.42
2023-02-06T23:01:53.085Z,20.63
2023-02-06T23:04:22.468Z,20.30
2023-02-06T23:06:49.745Z,17.92
2023-02-06T23:09:19.024Z,20.85
2023-02-06T23:11:46.299Z,19.67
2023-02-06T23:14:14.679Z,20.52
2023-02-06T23:16:44.375Z,20.73
2023-02-06T23:19:13.814Z,26.45
2023-02-06T23:21:43.372Z,22.63
2023-02-06T23:24:10.439Z,24.27
2023-02-06T23:26:37.863Z,24.25
2023-02-06T23:29:06.893Z,21.23
2023-02-06T23:31:35.834Z,21.73
2023-02-06T23:34:02.998Z,21.17
2023-02-06T23:36:29.615Z,24.52
2023-02-06T23:38:56.077Z,23.42
2023-02-06T23:41:25.939Z,23.48
2023-02-06T23:43:54.847Z,22.88
2023-02-06T23:46:22.192Z,24.27
2023-02-06T23:48:49.660Z,25.38
2023-02-06T23:51:17.249Z,23.60
2023-02-06T23:53:43.773Z,24.60
2023-02-06T23:56:12.452Z,20.98
2023-02-06T23:58:40.423Z,25.08
